Time;durP1;ratioP1;P1;durP2;ratioP2;P2;SDS_P1;SDS_P2;PMS_P1;PMS_P2;Temp;Humidity;BMP_temperature;BMP_pressure;BME280_temperature;BME280_humidity;BME280_pressure;Samples;Min_cycle;Max_cycle;Signal;HPM_P1;HPM_P2
2023/11/16 00:00:27;;;;;;;0.00;0.00;;;;;;;4.92;100.00;96154.81;1034588;28;20272;-73
2023/11/16 00:00:57;;;;;;;0.03;0.03;;;;;;;4.96;100.00;96165.56;1030337;28;20070;-74
2023/11/16 00:01:28;;;;;;;2.53;0.40;;;;;;;4.95;100.00;96159.56;1026503;28;20369;-74
2023/11/16 00:01:59;;;;;;;0.35;0.10;;;;;;;4.96;100.00;96161.19;1026198;28;20069;-74
2023/11/16 00:02:31;;;;;;;0.20;0.20;;;;;;;4.97;100.00;96165.38;1034485;28;20260;-72
2023/11/16 00:03:02;;;;;;;0.20;0.20;;;;;;;4.93;100.00;96156.41;1034368;28;20034;-74
2023/11/16 00:03:33;;;;;;;0.00;0.00;;;;;;;4.89;100.00;96155.22;1026190;28;20265;-72
2023/11/16 00:04:06;;;;;;;0.08;0.08;;;;;;;5.04;100.00;96162.69;1030152;28;20349;-73
2023/11/16 00:04:36;;;;;;;0.20;0.20;;;;;;;5.05;100.00;96166.09;1030024;28;20569;-74
2023/11/16 00:05:07;;;;;;;0.00;0.00;;;;;;;5.06;100.00;96165.84;1028176;28;20278;-73
2023/11/16 00:05:38;;;;;;;0.38;0.38;;;;;;;5.05;100.00;96159.06;1034275;28;20030;-72
2023/11/16 00:06:10;;;;;;;0.30;0.10;;;;;;;5.05;100.00;96168.69;1034263;28;20756;-73
2023/11/16 00:06:41;;;;;;;0.22;0.22;;;;;;;5.03;100.00;96155.09;1030538;28;20109;-74
2023/11/16 00:07:11;;;;;;;0.00;0.00;;;;;;;5.02;100.00;96154.31;1030345;28;20270;-71
2023/11/16 00:07:45;;;;;;;0.15;0.15;;;;;;;5.07;100.00;96164.88;1030146;28;20037;-73
2023/11/16 00:08:16;;;;;;;0.00;0.00;;;;;;;5.06;100.00;96165.06;1034544;28;20034;-73
2023/11/16 00:08:47;;;;;;;0.35;0.32;;;;;;;5.05;100.00;96158.28;1034303;28;20269;-73
2023/11/16 00:09:18;;;;;;;0.75;0.75;;;;;;;4.94;100.00;96152.00;1030375;28;20273;-71
2023/11/16 00:09:48;;;;;;;0.00;0.00;;;;;;;4.99;100.00;96164.34;1026101;28;20030;-71
2023/11/16 00:10:19;;;;;;;0.10;0.10;;;;;;;4.97;100.00;96162.75;1026448;28;20262;-75
2023/11/16 00:10:49;;;;;;;0.17;0.17;;;;;;;4.92;100.00;96154.81;1034367;28;20084;-74
2023/11/16 00:11:20;;;;;;;0.00;0.00;;;;;;;4.97;100.00;96162.75;1029659;28;20030;-74
2023/11/16 00:11:50;;;;;;;0.25;0.25;;;;;;;4.95;100.00;96161.38;1026054;28;20031;-74
2023/11/16 00:12:21;;;;;;;0.10;0.10;;;;;;;4.94;100.00;96163.19;1026149;28;20030;-72
2023/11/16 00:12:54;;;;;;;0.10;0.10;;;;;;;4.96;100.00;96166.38;1026497;28;20030;-73
2023/11/16 00:13:24;;;;;;;0.93;0.75;;;;;;;4.97;100.00;96170.56;1035249;28;20465;-73
2023/11/16 00:13:56;;;;;;;0.10;0.10;;;;;;;4.97;100.00;96161.97;1038617;28;20268;-74
2023/11/16 00:14:27;;;;;;;0.52;0.52;;;;;;;4.97;100.00;96167.97;1042731;28;20029;-74
2023/11/16 00:14:58;;;;;;;0.00;0.00;;;;;;;4.99;100.00;96169.53;1035121;28;20802;-72
2023/11/16 00:15:30;;;;;;;0.10;0.10;;;;;;;4.98;100.00;96163.56;1027180;28;20781;-72
2023/11/16 00:16:04;;;;;;;0.73;0.73;;;;;;;4.95;100.00;96162.16;1026977;28;20281;-75
2023/11/16 00:16:36;;;;;;;0.00;0.00;;;;;;;5.01;100.00;96162.34;1032032;28;20356;-72
2023/11/16 00:17:08;;;;;;;0.00;0.00;;;;;;;4.92;100.00;96154.81;1033039;28;20649;-74
2023/11/16 00:17:38;;;;;;;0.28;0.08;;;;;;;4.99;100.00;96169.53;1036367;28;20308;-72
2023/11/16 00:18:09;;;;;;;0.20;0.20;;;;;;;4.97;100.00;96165.38;1031030;28;20336;-73
2023/11/16 00:18:41;;;;;;;0.40;0.28;;;;;;;4.99;100.00;96162.53;1030989;28;20041;-72
2023/11/16 00:19:12;;;;;;;0.10;0.10;;;;;;;5.03;100.00;96166.31;1031420;28;20588;-73
2023/11/16 00:19:42;;;;;;;0.43;0.43;;;;;;;5.02;100.00;96162.09;1035757;28;20312;-73
2023/11/16 00:20:13;;;;;;;0.00;0.00;;;;;;;5.01;100.00;96164.94;1035048;28;20410;-72
2023/11/16 00:20:45;;;;;;;0.10;0.10;;;;;;;5.00;100.00;96163.31;1027442;28;20121;-72
2023/11/16 00:21:15;;;;;;;12.27;1.20;;;;;;;5.05;100.00;96171.28;1030676;28;20662;-71
2023/11/16 00:21:46;;;;;;;0.00;0.00;;;;;;;4.99;100.00;96154.72;1031225;28;20080;-74
2023/11/16 00:22:17;;;;;;;0.38;0.38;;;;;;;4.94;100.00;96150.19;1038743;28;20048;-72
2023/11/16 00:22:47;;;;;;;0.00;0.00;;;;;;;5.01;100.00;96162.34;1043143;28;20095;-73
2023/11/16 00:23:18;;;;;;;0.00;0.00;;;;;;;5.02;100.00;96169.13;1039163;28;20687;-73
2023/11/16 00:23:48;;;;;;;0.00;0.00;;;;;;;4.96;100.00;96166.38;1039268;28;20030;-73
2023/11/16 00:24:19;;;;;;;0.00;0.00;;;;;;;4.90;100.00;96159.44;1043550;28;20062;-73
2023/11/16 00:24:50;;;;;;;0.17;0.17;;;;;;;5.01;100.00;96168.31;1039375;28;20695;-73
2023/11/16 00:25:20;;;;;;;0.20;0.20;;;;;;;5.05;100.00;96171.28;1039287;28;20405;-73
2023/11/16 00:25:50;;;;;;;0.28;0.15;;;;;;;5.02;100.00;96169.13;1039126;28;20098;-73
2023/11/16 00:26:21;;;;;;;0.00;0.00;;;;;;;5.03;100.00;96166.31;1039241;28;20022;-72
2023/11/16 00:26:54;;;;;;;0.10;0.10;;;;;;;5.08;100.00;96165.66;1035189;28;20505;-74
2023/11/16 00:27:26;;;;;;;0.47;0.35;;;;;;;5.08;100.00;96170.84;1038901;28;20040;-73
2023/11/16 00:27:59;;;;;;;0.00;0.00;;;;;;;5.07;100.00;96162.25;1039924;28;20271;-74
2023/11/16 00:28:29;;;;;;;0.10;0.10;;;;;;;5.07;100.00;96161.47;1035875;28;20304;-71
2023/11/16 00:29:01;;;;;;;0.10;0.10;;;;;;;5.09;100.00;96164.63;1038976;28;20346;-71
2023/11/16 00:29:32;;;;;;;0.00;0.00;;;;;;;5.06;100.00;96150.25;1035270;28;20372;-74
2023/11/16 00:30:03;;;;;;;0.00;0.00;;;;;;;5.15;100.00;96164.56;1031508;28;20269;-74
2023/11/16 00:30:34;;;;;;;0.10;0.10;;;;;;;5.14;100.00;96157.00;1031427;28;20273;-72
2023/11/16 00:31:04;;;;;;;0.32;0.32;;;;;;;5.19;100.00;96159.72;1030355;28;20709;-73
2023/11/16 00:31:35;;;;;;;0.00;0.00;;;;;;;5.13;100.00;96152.78;1031178;28;20033;-74
2023/11/16 00:32:05;;;;;;;0.43;0.43;;;;;;;5.18;100.00;96168.53;1039249;28;20033;-73
2023/11/16 00:32:36;;;;;;;0.00;0.00;;;;;;;5.16;100.00;96162.75;1035120;28;20034;-72
2023/11/16 00:33:06;;;;;;;0.10;0.10;;;;;;;5.18;100.00;96165.94;1034992;28;20045;-73
2023/11/16 00:33:38;;;;;;;0.82;0.50;;;;;;;5.12;100.00;96153.81;1035265;28;20034;-72
2023/11/16 00:34:08;;;;;;;0.10;0.10;;;;;;;5.26;100.00;96160.44;1039279;28;20534;-74
2023/11/16 00:34:40;;;;;;;0.20;0.20;;;;;;;5.31;100.00;96163.19;1043571;28;20290;-71
2023/11/16 00:35:10;;;;;;;0.00;0.00;;;;;;;5.30;100.00;96159.00;1043264;28;20624;-74
2023/11/16 00:35:41;;;;;;;0.00;0.00;;;;;;;5.27;100.00;96149.03;1038986;28;20276;-73
2023/11/16 00:36:12;;;;;;;0.20;0.20;;;;;;;5.38;100.00;96152.69;1035279;28;20559;-74
2023/11/16 00:36:43;;;;;;;0.00;0.00;;;;;;;5.39;100.00;96155.06;1035095;28;20041;-73
2023/11/16 00:37:13;;;;;;;0.10;0.10;;;;;;;5.36;100.00;96150.31;1035264;28;20033;-74
2023/11/16 00:37:44;;;;;;;0.45;0.45;;;;;;;5.44;100.00;96160.44;1031481;28;20026;-73
2023/11/16 00:38:15;;;;;;;0.00;0.00;;;;;;;5.40;100.00;96151.47;1035136;28;20030;-74
2023/11/16 00:38:47;;;;;;;0.08;0.08;;;;;;;5.46;100.00;96156.81;1026673;28;20030;-73
2023/11/16 00:39:19;;;;;;;0.70;0.57;;;;;;;5.49;100.00;96161.56;1032549;28;20289;-72
2023/11/16 00:39:50;;;;;;;0.08;0.08;;;;;;;5.50;100.00;96152.75;1039010;28;20346;-72
2023/11/16 00:40:22;;;;;;;4.55;0.40;;;;;;;5.50;100.00;96152.75;1039106;28;20353;-73
2023/11/16 00:40:55;;;;;;;1.48;0.40;;;;;;;5.53;100.00;96165.31;1034288;28;20521;-72
2023/11/16 00:41:25;;;;;;;0.00;0.00;;;;;;;5.49;100.00;96143.34;1035018;28;20293;-73
2023/11/16 00:41:57;;;;;;;0.00;0.00;;;;;;;5.55;100.00;96150.28;1031769;28;20273;-73
2023/11/16 00:42:31;;;;;;;0.08;0.08;;;;;;;5.53;100.00;96150.50;1031653;28;20050;-74
2023/11/16 00:43:01;;;;;;;0.10;0.10;;;;;;;5.57;100.00;96156.88;1031853;28;20289;-73
2023/11/16 00:43:34;;;;;;;0.00;0.00;;;;;;;5.54;100.00;96149.50;1028791;28;20262;-72
2023/11/16 00:44:05;;;;;;;0.00;0.00;;;;;;;5.57;100.00;96153.47;1030784;28;20058;-71
2023/11/16 00:44:37;;;;;;;0.00;0.00;;;;;;;5.52;100.00;96151.50;1033501;28;20264;-74
2023/11/16 00:45:08;;;;;;;0.20;0.20;;;;;;;5.56;100.00;96144.06;1032703;28;20021;-74
2023/11/16 00:45:38;;;;;;;0.22;0.22;;;;;;;5.59;100.00;96143.63;1035084;28;20288;-73
2023/11/16 00:46:11;;;;;;;0.00;0.00;;;;;;;5.54;100.00;96141.69;1027132;28;20483;-74
2023/11/16 00:46:43;;;;;;;0.00;0.00;;;;;;;5.59;100.00;96148.81;1035140;28;20022;-73
2023/11/16 00:47:18;;;;;;;0.10;0.10;;;;;;;5.59;100.00;96144.41;1034611;28;20280;-72
2023/11/16 00:47:49;;;;;;;0.00;0.00;;;;;;;5.60;100.00;96145.19;1027871;28;20262;-73
2023/11/16 00:48:19;;;;;;;0.20;0.20;;;;;;;5.57;100.00;96145.66;1026905;28;20262;-71
2023/11/16 00:48:52;;;;;;;0.13;0.13;;;;;;;5.59;100.00;96143.63;1027101;28;20023;-73
2023/11/16 00:49:22;;;;;;;0.60;0.60;;;;;;;5.57;100.00;96143.06;1026721;28;20910;-73
2023/11/16 00:49:53;;;;;;;1.58;1.48;;;;;;;5.59;100.00;96143.63;1039204;28;20260;-73
2023/11/16 00:50:23;;;;;;;0.00;0.00;;;;;;;5.58;100.00;96136.84;1032025;28;20023;-73
2023/11/16 00:50:54;;;;;;;0.40;0.40;;;;;;;5.59;100.00;96141.00;1038594;28;20029;-72
2023/11/16 00:51:24;;;;;;;0.00;0.00;;;;;;;5.56;100.00;96138.84;1030917;28;20022;-72
2023/11/16 00:51:55;;;;;;;4.28;0.57;;;;;;;5.58;100.00;96134.22;1029812;28;20155;-72
2023/11/16 00:52:27;;;;;;;0.28;0.28;;;;;;;5.55;100.00;96138.06;1031818;28;20031;-73
2023/11/16 00:52:58;;;;;;;0.28;0.28;;;;;;;5.58;100.00;96142.03;1031097;28;20027;-74
2023/11/16 00:53:29;;;;;;;0.30;0.30;;;;;;;5.52;100.00;96127.28;1031431;28;20266;-73
2023/11/16 00:54:01;;;;;;;3.95;1.00;;;;;;;5.54;100.00;96135.69;1034786;28;20026;-71
2023/11/16 00:54:32;;;;;;;0.00;0.00;;;;;;;5.59;100.00;96136.59;1028991;28;20988;-73
2023/11/16 00:55:04;;;;;;;0.10;0.10;;;;;;;5.55;100.00;96126.84;1031148;28;20283;-74
2023/11/16 00:55:35;;;;;;;0.10;0.10;;;;;;;5.58;100.00;96137.63;1031013;28;20508;-73
2023/11/16 00:56:06;;;;;;;1.15;1.15;;;;;;;5.55;100.00;96138.06;1030604;28;20269;-72
2023/11/16 00:56:36;;;;;;;0.00;0.00;;;;;;;5.56;100.00;96131.84;1023062;29;20027;-74
2023/11/16 00:57:07;;;;;;;0.00;0.00;;;;;;;5.54;100.00;96146.91;1022967;29;20896;-72
2023/11/16 00:57:38;;;;;;;0.00;0.00;;;;;;;5.34;100.00;96105.50;1023589;28;20413;-72
2023/11/16 00:58:09;;;;;;;0.00;0.00;;;;;;;5.43;100.00;96127.63;1031069;28;20026;-73
2023/11/16 00:58:39;;;;;;;0.10;0.10;;;;;;;5.51;100.00;96131.72;1037627;28;20524;-73
2023/11/16 00:59:10;;;;;;;0.00;0.00;;;;;;;5.53;100.00;96134.09;1039144;28;20295;-72
2023/11/16 00:59:41;;;;;;;0.00;0.00;;;;;;;5.43;100.00;96122.41;1034903;28;20851;-73
2023/11/16 01:00:12;;;;;;;1.13;1.02;;;;;;;5.49;100.00;96133.72;1034726;28;20040;-74
2023/11/16 01:00:42;;;;;;;0.30;0.30;;;;;;;5.39;100.00;96113.44;1039358;28;20033;-73
2023/11/16 01:01:13;;;;;;;0.00;0.00;;;;;;;5.49;100.00;96130.34;1030238;28;20790;-73
2023/11/16 01:01:43;;;;;;;0.03;0.03;;;;;;;5.47;100.00;96127.19;1026681;28;20030;-72
2023/11/16 01:02:14;;;;;;;0.00;0.00;;;;;;;5.47;100.00;96137.59;1027028;28;20038;-72
2023/11/16 01:02:48;;;;;;;0.10;0.10;;;;;;;5.38;100.00;96122.25;1027091;28;20062;-74
2023/11/16 01:03:20;;;;;;;0.13;0.13;;;;;;;5.34;100.00;96122.94;1028448;28;20031;-73
2023/11/16 01:03:50;;;;;;;0.00;0.00;;;;;;;5.26;100.00;96121.41;1031643;28;20273;-73
2023/11/16 01:04:21;;;;;;;0.00;0.00;;;;;;;5.32;100.00;96130.16;1030873;28;20668;-75
2023/11/16 01:04:51;;;;;;;0.00;0.00;;;;;;;5.32;100.00;96133.53;1031050;28;20038;-73
2023/11/16 01:05:22;;;;;;;0.00;0.00;;;;;;;5.29;100.00;96131.38;1034025;28;20033;-72
2023/11/16 01:05:53;;;;;;;0.00;0.00;;;;;;;5.23;100.00;96134.88;1031212;28;20490;-73
2023/11/16 01:06:23;;;;;;;0.00;0.00;;;;;;;5.27;100.00;96136.03;1030774;28;20029;-74
2023/11/16 01:06:55;;;;;;;0.00;0.00;;;;;;;5.19;100.00;96128.50;1034646;28;20086;-72
2023/11/16 01:07:27;;;;;;;0.00;0.00;;;;;;;5.27;100.00;96140.44;1030653;28;20533;-73
2023/11/16 01:07:57;;;;;;;0.17;0.17;;;;;;;5.25;100.00;96138.03;1030983;28;20274;-73
2023/11/16 01:08:33;;;;;;;0.10;0.10;;;;;;;5.24;100.00;96136.47;1026704;28;20258;-72
2023/11/16 01:09:06;;;;;;;0.00;0.00;;;;;;;5.26;100.00;96138.81;1034911;28;20033;-72
2023/11/16 01:09:37;;;;;;;0.00;0.00;;;;;;;5.21;100.00;96126.50;1034925;28;20336;-74
2023/11/16 01:10:10;;;;;;;0.00;0.00;;;;;;;5.27;100.00;96133.41;1030697;28;20332;-72
2023/11/16 01:10:43;;;;;;;0.00;0.00;;;;;;;5.25;100.00;96138.03;1027541;28;20776;-72
2023/11/16 01:11:15;;;;;;;0.00;0.00;;;;;;;5.26;100.00;96134.41;1031179;28;20261;-73
2023/11/16 01:11:46;;;;;;;0.10;0.10;;;;;;;5.27;100.00;96136.03;1032961;28;20270;-73
2023/11/16 01:12:17;;;;;;;0.28;0.28;;;;;;;5.23;100.00;96140.09;1035635;28;20356;-74
2023/11/16 01:12:49;;;;;;;0.00;0.00;;;;;;;5.25;100.00;96139.84;1039056;28;20275;-75
2023/11/16 01:13:23;;;;;;;0.32;0.32;;;;;;;5.25;100.00;96138.03;1039412;28;20115;-74
2023/11/16 01:13:55;;;;;;;0.00;0.00;;;;;;;5.22;100.00;96137.69;1035574;28;20269;-73
2023/11/16 01:14:25;;;;;;;0.00;0.00;;;;;;;5.17;100.00;96130.53;1030868;28;21076;-72
2023/11/16 01:14:59;;;;;;;0.63;0.63;;;;;;;5.20;100.00;96140.50;1026949;28;20277;-71
2023/11/16 01:15:30;;;;;;;0.00;0.00;;;;;;;5.23;100.00;96140.09;1030127;28;20073;-71
2023/11/16 01:16:03;;;;;;;0.28;0.28;;;;;;;5.21;100.00;96139.50;1031481;28;20308;-73
2023/11/16 01:16:42;;;;;;;0.00;0.00;;;;;;;5.17;100.00;96138.34;1036752;28;20260;-73
2023/11/16 01:17:18;;;;;;;0.25;0.25;;;;;;;5.17;100.00;96135.75;1034856;28;20276;-73
2023/11/16 01:17:50;;;;;;;0.32;0.32;;;;;;;5.18;100.00;96137.31;1033222;28;20281;-73
2023/11/16 01:18:26;;;;;;;0.85;0.85;;;;;;;5.17;100.00;96136.53;1034912;28;20947;-73
2023/11/16 01:19:00;;;;;;;0.00;0.00;;;;;;;5.13;100.00;96137.16;1039499;28;20264;-73
2023/11/16 01:19:32;;;;;;;0.15;0.15;;;;;;;5.14;100.00;96133.59;1038055;28;20265;-72
2023/11/16 01:20:09;;;;;;;0.10;0.10;;;;;;;5.10;100.00;96129.84;1038929;28;20279;-73
2023/11/16 01:20:40;;;;;;;0.00;0.00;;;;;;;5.20;100.00;96145.72;1034672;28;20273;-73
2023/11/16 01:21:11;;;;;;;0.00;0.00;;;;;;;5.21;100.00;96142.09;1037478;28;20784;-71
2023/11/16 01:21:44;;;;;;;0.00;0.00;;;;;;;5.20;100.00;96132.72;1043065;28;20275;-72
2023/11/16 01:22:15;;;;;;;0.00;0.00;;;;;;;5.20;100.00;96140.50;1041342;28;20574;-73
2023/11/16 01:23:00;;;;;;;0.65;0.65;;;;;;;5.19;100.00;96138.91;1035475;28;20292;-73
2023/11/16 01:23:31;;;;;;;0.03;0.03;;;;;;;5.22;100.00;96135.88;1034891;28;20280;-72
2023/11/16 01:24:04;;;;;;;0.05;0.05;;;;;;;5.21;100.00;96136.91;1037557;28;20272;-72
2023/11/16 01:24:35;;;;;;;0.00;0.00;;;;;;;5.19;100.00;96126.69;1039953;28;20030;-73
2023/11/16 01:25:14;;;;;;;0.20;0.20;;;;;;;5.10;100.00;96107.22;1037140;28;20275;-72
2023/11/16 01:25:51;;;;;;;0.00;0.00;;;;;;;5.28;100.00;96132.41;1038758;28;20274;-73
2023/11/16 01:26:23;;;;;;;0.10;0.10;;;;;;;5.27;100.00;96135.22;1037000;28;20265;-72
2023/11/16 01:26:56;;;;;;;1.13;0.28;;;;;;;5.26;100.00;96139.63;1043793;28;20267;-73
2023/11/16 01:27:26;;;;;;;0.10;0.10;;;;;;;5.18;100.00;96126.91;1042872;28;20661;-72
2023/11/16 01:27:57;;;;;;;0.00;0.00;;;;;;;5.23;100.00;96132.28;1039721;28;20323;-74
2023/11/16 01:28:29;;;;;;;0.10;0.10;;;;;;;5.22;100.00;96130.66;1038999;28;20481;-73
2023/11/16 01:29:04;;;;;;;0.20;0.20;;;;;;;5.13;100.00;96121.56;1039355;28;20037;-73
2023/11/16 01:29:35;;;;;;;0.55;0.25;;;;;;;5.23;100.00;96137.47;1040008;28;20727;-74
2023/11/16 01:30:09;;;;;;;0.00;0.00;;;;;;;5.21;100.00;96131.69;1039940;28;20265;-72
2023/11/16 01:30:40;;;;;;;0.00;0.00;;;;;;;5.19;100.00;96131.09;1038782;28;20037;-70
2023/11/16 01:31:10;;;;;;;0.00;0.00;;;;;;;5.18;100.00;96126.91;1035504;28;20280;-73
2023/11/16 01:31:40;;;;;;;0.00;0.00;;;;;;;5.08;100.00;96119.63;1031420;28;20038;-74
2023/11/16 01:32:12;;;;;;;0.20;0.20;;;;;;;5.07;100.00;96117.25;1030826;28;20521;-74
2023/11/16 01:32:42;;;;;;;0.32;0.32;;;;;;;5.06;100.00;96113.06;1030870;28;20030;-73
2023/11/16 01:33:13;;;;;;;0.00;0.00;;;;;;;5.13;100.00;96129.38;1031104;28;20282;-72
2023/11/16 01:33:44;;;;;;;0.65;0.30;;;;;;;5.07;100.00;96106.84;1030800;28;20035;-73
2023/11/16 01:34:14;;;;;;;0.28;0.28;;;;;;;5.13;100.00;96124.97;1030617;28;20556;-74
2023/11/16 01:34:45;;;;;;;0.03;0.03;;;;;;;5.16;100.00;96128.94;1026856;28;20042;-73
2023/11/16 01:35:15;;;;;;;0.03;0.03;;;;;;;5.14;100.00;96125.78;1026738;28;20027;-74
2023/11/16 01:35:46;;;;;;;0.15;0.15;;;;;;;5.12;100.00;96119.97;1026654;28;20031;-73
2023/11/16 01:36:18;;;;;;;0.43;0.20;;;;;;;5.11;100.00;96127.00;1026848;28;20022;-72
2023/11/16 01:36:51;;;;;;;0.00;0.00;;;;;;;5.10;100.00;96124.63;1022762;29;20274;-72
2023/11/16 01:37:22;;;;;;;0.17;0.10;;;;;;;5.08;100.00;96121.44;1020855;28;20282;-74
2023/11/16 01:37:56;;;;;;;0.10;0.10;;;;;;;5.10;100.00;96125.41;1030863;28;20270;-75
2023/11/16 01:38:26;;;;;;;0.00;0.00;;;;;;;5.11;100.00;96115.81;1028731;28;20027;-73
2023/11/16 01:38:57;;;;;;;0.08;0.08;;;;;;;5.20;100.00;96130.09;1030742;28;20270;-72
2023/11/16 01:39:28;;;;;;;0.00;0.00;;;;;;;5.12;100.00;96117.38;1035586;28;20076;-73
2023/11/16 01:39:58;;;;;;;0.17;0.17;;;;;;;5.17;100.00;96130.53;1030764;28;20033;-72
2023/11/16 01:40:29;;;;;;;0.05;0.05;;;;;;;5.16;100.00;96134.13;1032261;28;20057;-73
2023/11/16 01:40:59;;;;;;;0.30;0.30;;;;;;;5.13;100.00;96130.19;1034110;28;20033;-71
2023/11/16 01:41:30;;;;;;;0.15;0.15;;;;;;;5.06;100.00;96118.25;1040634;28;20018;-71
2023/11/16 01:42:00;;;;;;;0.00;0.00;;;;;;;5.08;100.00;96130.03;1043038;28;20016;-73
2023/11/16 01:42:31;;;;;;;0.00;0.00;;;;;;;5.07;100.00;96130.25;1030756;28;20794;-72
2023/11/16 01:43:01;;;;;;;0.00;0.00;;;;;;;5.05;100.00;96137.47;1030945;28;20756;-73
2023/11/16 01:43:33;;;;;;;0.22;0.10;;;;;;;4.99;100.00;96118.31;1030859;28;20971;-74
2023/11/16 01:44:03;;;;;;;0.00;0.00;;;;;;;5.05;100.00;96127.88;1031071;28;20117;-72
2023/11/16 01:44:34;;;;;;;0.10;0.10;;;;;;;5.07;100.00;96130.25;1030632;28;20261;-74
2023/11/16 01:45:05;;;;;;;0.00;0.00;;;;;;;5.04;100.00;96131.50;1022614;29;20027;-74
2023/11/16 01:45:36;;;;;;;0.52;0.47;;;;;;;5.03;100.00;96124.72;1023390;28;20724;-73
2023/11/16 01:46:06;;;;;;;0.00;0.00;;;;;;;5.02;100.00;96128.28;1029063;28;20282;-72
2023/11/16 01:46:37;;;;;;;0.17;0.17;;;;;;;4.96;100.00;96119.56;1029385;28;20562;-71
2023/11/16 01:47:08;;;;;;;0.25;0.25;;;;;;;5.05;100.00;96137.47;1034790;28;20080;-73
2023/11/16 01:47:40;;;;;;;1.80;0.32;;;;;;;4.94;100.00;96126.78;1034689;28;20101;-74
2023/11/16 01:48:10;;;;;;;0.10;0.10;;;;;;;5.03;100.00;96126.47;1030645;28;20280;-73
2023/11/16 01:48:44;;;;;;;0.45;0.45;;;;;;;5.03;100.00;96134.28;1026687;28;20753;-74
2023/11/16 01:49:15;;;;;;;0.20;0.20;;;;;;;5.01;100.00;96136.31;1026651;28;20030;-73
2023/11/16 01:49:45;;;;;;;0.57;0.57;;;;;;;4.96;100.00;96127.38;1034663;28;20269;-73
2023/11/16 01:50:15;;;;;;;0.55;0.25;;;;;;;4.98;100.00;96129.75;1030676;28;20026;-72
2023/11/16 01:50:46;;;;;;;0.20;0.20;;;;;;;4.92;100.00;96122.81;1030777;28;20034;-72
2023/11/16 01:51:16;;;;;;;0.00;0.00;;;;;;;4.97;100.00;96131.56;1026187;28;20568;-74
2023/11/16 01:51:47;;;;;;;0.10;0.10;;;;;;;4.93;100.00;96127.81;1025720;28;20038;-73
2023/11/16 01:52:18;;;;;;;7.97;0.63;;;;;;;4.94;100.00;96132.00;1030667;28;20023;-72
2023/11/16 01:52:49;;;;;;;0.10;0.10;;;;;;;4.96;100.00;96127.38;1026806;28;20030;-72
2023/11/16 01:53:22;;;;;;;3.00;1.00;;;;;;;4.90;100.00;96117.06;1034875;28;20798;-72
2023/11/16 01:53:58;;;;;;;0.20;0.20;;;;;;;4.95;100.00;96132.78;1031186;28;20204;-73
2023/11/16 01:54:28;;;;;;;0.00;0.00;;;;;;;4.87;100.00;96120.09;1027814;28;20278;-72
2023/11/16 01:54:59;;;;;;;0.40;0.38;;;;;;;4.90;100.00;96133.44;1026748;28;20337;-72
2023/11/16 01:55:40;;;;;;;0.63;0.63;;;;;;;4.86;100.00;96123.66;1032173;28;20065;-74
2023/11/16 01:56:11;;;;;;;0.10;0.10;;;;;;;4.84;100.00;96131.69;1032804;28;20061;-73
2023/11/16 01:56:42;;;;;;;0.55;0.15;;;;;;;4.83;100.00;96127.53;1021858;29;20314;-72
2023/11/16 01:57:12;;;;;;;0.10;0.10;;;;;;;4.87;100.00;96131.28;1026650;28;20653;-73
2023/11/16 01:57:43;;;;;;;0.25;0.25;;;;;;;4.83;100.00;96124.91;1023026;28;20090;-74
2023/11/16 01:58:13;;;;;;;0.00;0.00;;;;;;;4.87;100.00;96131.28;1026129;28;20035;-74
2023/11/16 01:58:44;;;;;;;0.10;0.10;;;;;;;4.86;100.00;96132.28;1030829;28;20699;-72
2023/11/16 01:59:15;;;;;;;0.00;0.00;;;;;;;4.82;100.00;96122.53;1030967;28;20080;-72
2023/11/16 01:59:45;;;;;;;0.40;0.32;;;;;;;4.89;100.00;96133.63;1030670;28;20073;-73
2023/11/16 02:00:16;;;;;;;0.00;0.00;;;;;;;4.90;100.00;96135.25;1033665;28;20037;-73
2023/11/16 02:00:48;;;;;;;0.00;0.00;;;;;;;4.84;100.00;96125.72;1034588;28;20836;-73
2023/11/16 02:01:18;;;;;;;0.10;0.10;;;;;;;4.81;100.00;96121.72;1026484;28;20518;-73
2023/11/16 02:01:49;;;;;;;0.00;0.00;;;;;;;4.88;100.00;96145.84;1030564;28;20257;-74
2023/11/16 02:02:19;;;;;;;0.00;0.00;;;;;;;4.82;100.00;96125.13;1030485;28;20022;-71
2023/11/16 02:02:49;;;;;;;0.20;0.20;;;;;;;4.88;100.00;96140.66;1034732;28;20484;-73
2023/11/16 02:03:20;;;;;;;0.00;0.00;;;;;;;4.85;100.00;96143.69;1030408;28;20494;-73
2023/11/16 02:03:51;;;;;;;0.03;0.03;;;;;;;4.85;100.00;96138.47;1034477;28;20034;-71
2023/11/16 02:04:22;;;;;;;1.90;0.75;;;;;;;4.84;100.00;96136.13;1034728;28;20026;-72
2023/11/16 02:04:53;;;;;;;0.57;0.57;;;;;;;4.85;100.00;96143.69;1038924;28;20511;-72
2023/11/16 02:05:23;;;;;;;0.15;0.15;;;;;;;4.82;100.00;96138.91;1031763;28;20276;-73
2023/11/16 02:05:55;;;;;;;0.30;0.30;;;;;;;4.82;100.00;96138.91;1030647;28;20029;-73
2023/11/16 02:06:26;;;;;;;1.17;1.08;;;;;;;4.80;100.00;96135.75;1026630;28;20026;-73
2023/11/16 02:06:58;;;;;;;0.00;0.00;;;;;;;4.80;100.00;96135.75;1025091;28;20328;-71
2023/11/16 02:07:29;;;;;;;0.00;0.00;;;;;;;4.81;100.00;96139.94;1029469;28;20110;-72
2023/11/16 02:08:01;;;;;;;0.50;0.50;;;;;;;4.84;100.00;96139.50;1035310;28;20257;-72
2023/11/16 02:08:31;;;;;;;0.00;0.00;;;;;;;4.85;100.00;96138.47;1031229;28;20022;-74
2023/11/16 02:09:02;;;;;;;0.00;0.00;;;;;;;4.85;100.00;96135.09;1030634;28;20253;-74
2023/11/16 02:09:32;;;;;;;0.10;0.10;;;;;;;4.84;100.00;96142.09;1030431;28;20026;-74
2023/11/16 02:10:03;;;;;;;0.00;0.00;;;;;;;4.81;100.00;96131.34;1026610;28;20023;-74
2023/11/16 02:10:34;;;;;;;0.00;0.00;;;;;;;4.81;100.00;96136.53;1030488;28;20018;-73
2023/11/16 02:11:05;;;;;;;0.00;0.00;;;;;;;4.81;100.00;96132.13;1029888;28;20026;-73
2023/11/16 02:11:36;;;;;;;0.43;0.43;;;;;;;4.82;100.00;96133.72;1034848;28;20096;-73
2023/11/16 02:12:06;;;;;;;0.00;0.00;;;;;;;4.80;100.00;96135.75;1034651;28;20070;-72
2023/11/16 02:12:37;;;;;;;0.00;0.00;;;;;;;4.80;100.00;96133.16;1031060;28;20042;-74
2023/11/16 02:13:17;;;;;;;0.10;0.10;;;;;;;4.78;100.00;96137.75;1030665;28;20029;-73
2023/11/16 02:13:49;;;;;;;0.00;0.00;;;;;;;4.79;100.00;96138.53;1030595;28;20101;-75
2023/11/16 02:14:19;;;;;;;0.20;0.20;;;;;;;4.69;100.00;96126.03;1028337;28;20492;-73
2023/11/16 02:14:50;;;;;;;0.57;0.43;;;;;;;4.75;100.00;96122.59;1026544;28;20262;-72
2023/11/16 02:15:20;;;;;;;0.00;0.00;;;;;;;4.79;100.00;96134.13;1026611;28;20517;-73
2023/11/16 02:15:55;;;;;;;0.10;0.10;;;;;;;4.78;100.00;96131.78;1026600;28;20031;-75
2023/11/16 02:16:28;;;;;;;0.60;0.45;;;;;;;4.79;100.00;96133.34;1032410;28;20037;-73
2023/11/16 02:16:58;;;;;;;0.00;0.00;;;;;;;4.71;100.00;96124.81;1030374;28;20316;-76
2023/11/16 02:17:30;;;;;;;0.00;0.00;;;;;;;4.77;100.00;96135.38;1034768;28;20328;-72
2023/11/16 02:18:01;;;;;;;0.00;0.00;;;;;;;4.71;100.00;96127.44;1034616;28;20022;-73
2023/11/16 02:18:33;;;;;;;0.00;0.00;;;;;;;4.78;100.00;96136.97;1034912;28;20292;-73
2023/11/16 02:19:21;;;;;;;0.00;0.00;;;;;;;4.75;100.00;96133.00;1034298;28;20025;-72
2023/11/16 02:19:52;;;;;;;0.40;0.40;;;;;;;4.77;100.00;96130.19;1030721;28;20345;-75
2023/11/16 02:20:28;;;;;;;0.00;0.00;;;;;;;4.77;100.00;96138.78;1027151;28;20313;-74
2023/11/16 02:20:58;;;;;;;0.10;0.10;;;;;;;4.72;100.00;96130.81;1034253;28;20726;-73
2023/11/16 02:21:30;;;;;;;0.00;0.00;;;;;;;4.70;100.00;96135.44;1037218;28;20265;-73
2023/11/16 02:22:01;;;;;;;2.28;0.90;;;;;;;4.68;100.00;96125.25;1040055;28;20014;-73
2023/11/16 02:22:32;;;;;;;1.73;1.05;;;;;;;4.61;100.00;96126.34;1036853;28;20257;-73
2023/11/16 02:23:03;;;;;;;0.00;0.00;;;;;;;4.59;100.00;96129.13;1033219;28;20351;-72
2023/11/16 02:23:33;;;;;;;0.50;0.50;;;;;;;4.66;100.00;96131.66;1028567;28;20837;-72
2023/11/16 02:24:06;;;;;;;1.42;0.88;;;;;;;4.64;100.00;96125.91;1034939;28;20030;-73
2023/11/16 02:24:36;;;;;;;0.00;0.00;;;;;;;4.71;100.00;96139.63;1033436;28;20026;-72
2023/11/16 02:25:08;;;;;;;0.00;0.00;;;;;;;4.72;100.00;96136.81;1034873;28;20276;-72
2023/11/16 02:25:43;;;;;;;0.00;0.00;;;;;;;4.72;100.00;96138.63;1032728;28;20041;-73
2023/11/16 02:26:13;;;;;;;0.30;0.30;;;;;;;4.72;100.00;96141.22;1027876;28;20278;-76
2023/11/16 02:26:43;;;;;;;0.30;0.30;;;;;;;4.72;100.00;96136.00;1026424;28;20349;-73
2023/11/16 02:27:14;;;;;;;0.00;0.00;;;;;;;4.72;100.00;96134.22;1025374;28;20027;-72
2023/11/16 02:27:44;;;;;;;0.13;0.13;;;;;;;4.66;100.00;96124.69;1026937;28;20509;-73
2023/11/16 02:28:15;;;;;;;0.10;0.10;;;;;;;4.74;100.00;96136.59;1027171;28;20030;-73
2023/11/16 02:28:46;;;;;;;0.38;0.38;;;;;;;4.71;100.00;96127.44;1030898;28;20034;-73